Time;durP1;ratioP1;P1;durP2;ratioP2;P2;SDS_P1;SDS_P2;PMS_P1;PMS_P2;Temp;Humidity;BMP_temperature;BMP_pressure;BME280_temperature;BME280_humidity;BME280_pressure;Samples;Min_cycle;Max_cycle;Signal;HPM_P1;HPM_P2
2023/11/15 00:00:56;;;;;;;10.53;5.53;;;;;;;;;;5103777;28;20203;-79
2023/11/15 00:03:24;;;;;;;9.13;6.30;;;;;;;;;;5096197;28;20219;-79
2023/11/15 00:05:51;;;;;;;6.93;5.00;;;;;;;;;;5093697;28;20626;-79
2023/11/15 00:08:18;;;;;;;6.60;5.93;;;;;;;;;;5098017;28;20195;-79
2023/11/15 00:10:45;;;;;;;4.73;3.83;;;;;;;;;;5102385;28;20207;-80
2023/11/15 00:13:12;;;;;;;5.17;3.17;;;;;;;;;;5093441;28;20196;-79
2023/11/15 00:15:38;;;;;;;3.33;3.03;;;;;;;;;;5105123;28;20692;-79
2023/11/15 00:18:05;;;;;;;3.07;2.87;;;;;;;;;;5094302;28;20204;-79
2023/11/15 00:20:34;;;;;;;3.53;3.13;;;;;;;;;;5105430;28;20222;-79
2023/11/15 00:23:04;;;;;;;6.77;4.37;;;;;;;;;;5112809;28;20340;-78
2023/11/15 00:25:32;;;;;;;4.73;3.97;;;;;;;;;;5100102;28;20231;-79
2023/11/15 00:27:59;;;;;;;3.83;3.17;;;;;;;;;;5093180;28;20204;-79
2023/11/15 00:30:26;;;;;;;4.13;3.33;;;;;;;;;;5093333;28;20207;-79
2023/11/15 00:32:52;;;;;;;8.37;3.67;;;;;;;;;;5092946;28;20192;-78
2023/11/15 00:35:19;;;;;;;3.50;3.20;;;;;;;;;;5092857;28;20204;-79
2023/11/15 00:37:47;;;;;;;4.37;3.37;;;;;;;;;;5099888;28;20214;-79
2023/11/15 00:40:15;;;;;;;3.03;2.73;;;;;;;;;;5112341;28;20216;-79
2023/11/15 00:42:42;;;;;;;3.83;3.00;;;;;;;;;;5093133;28;20235;-79
2023/11/15 00:45:11;;;;;;;3.93;3.17;;;;;;;;;;5106365;28;20694;-79
2023/11/15 00:47:38;;;;;;;18.40;11.67;;;;;;;;;;5092654;28;20275;-79
2023/11/15 00:50:06;;;;;;;23.47;15.03;;;;;;;;;;5105919;28;20199;-78
2023/11/15 00:52:33;;;;;;;6.63;5.90;;;;;;;;;;5092476;28;20208;-79
2023/11/15 00:55:02;;;;;;;5.97;4.17;;;;;;;;;;5092284;28;20674;-79
2023/11/15 00:57:29;;;;;;;5.57;4.57;;;;;;;;;;5092178;28;20205;-79
2023/11/15 00:59:56;;;;;;;5.40;4.60;;;;;;;;;;5094405;28;20212;-79
2023/11/15 01:02:26;;;;;;;10.67;7.10;;;;;;;;;;5112641;28;20231;-79
2023/11/15 01:04:53;;;;;;;13.93;10.20;;;;;;;;;;5112226;28;20215;-78
2023/11/15 01:07:20;;;;;;;6.90;6.20;;;;;;;;;;5103107;28;20203;-79
2023/11/15 01:09:47;;;;;;;17.00;15.20;;;;;;;;;;5108295;28;20214;-79
2023/11/15 01:12:16;;;;;;;6.23;4.70;;;;;;;;;;5112732;28;20227;-79
2023/11/15 01:14:43;;;;;;;6.70;5.17;;;;;;;;;;5095300;28;20196;-79
2023/11/15 01:17:14;;;;;;;4.70;3.67;;;;;;;;;;5092045;28;20201;-78
2023/11/15 01:19:40;;;;;;;5.73;3.73;;;;;;;;;;5091577;28;20231;-79
2023/11/15 01:22:08;;;;;;;6.03;3.60;;;;;;;;;;5102919;28;21000;-79
2023/11/15 01:24:37;;;;;;;5.57;3.43;;;;;;;;;;5111226;28;20656;-78
2023/11/15 01:27:06;;;;;;;4.17;3.73;;;;;;;;;;5100839;28;20219;-78
2023/11/15 01:29:34;;;;;;;4.13;3.73;;;;;;;;;;5091608;28;20249;-79
2023/11/15 01:32:01;;;;;;;4.73;3.20;;;;;;;;;;5091513;28;20200;-79
2023/11/15 01:34:27;;;;;;;2.90;2.67;;;;;;;;;;5105071;28;20200;-79
2023/11/15 01:36:55;;;;;;;2.93;2.60;;;;;;;;;;5091885;28;20212;-79
2023/11/15 01:39:23;;;;;;;3.93;2.03;;;;;;;;;;5097102;28;20669;-79
2023/11/15 01:41:50;;;;;;;3.33;3.03;;;;;;;;;;5112155;28;20234;-79
2023/11/15 01:44:18;;;;;;;3.80;3.40;;;;;;;;;;5097699;28;20234;-79
2023/11/15 01:46:48;;;;;;;4.27;3.50;;;;;;;;;;5111870;28;20195;-78
2023/11/15 01:49:15;;;;;;;5.10;3.93;;;;;;;;;;5111763;28;20231;-79
2023/11/15 01:51:42;;;;;;;3.50;3.20;;;;;;;;;;5097771;28;20224;-79
2023/11/15 01:54:10;;;;;;;3.27;3.00;;;;;;;;;;5111165;28;20207;-79
2023/11/15 01:56:37;;;;;;;4.50;3.30;;;;;;;;;;5097558;28;20204;-79
2023/11/15 01:59:04;;;;;;;3.27;3.07;;;;;;;;;;5091497;28;20211;-79
2023/11/15 02:01:33;;;;;;;3.53;2.87;;;;;;;;;;5091689;28;20557;-79
2023/11/15 02:04:01;;;;;;;3.33;3.03;;;;;;;;;;5099730;28;20242;-79
2023/11/15 02:06:30;;;;;;;3.83;3.30;;;;;;;;;;5095159;28;20213;-79
2023/11/15 02:08:57;;;;;;;4.53;3.43;;;;;;;;;;5100496;28;20645;-79
2023/11/15 02:11:24;;;;;;;3.90;3.60;;;;;;;;;;5094793;28;20203;-79
2023/11/15 02:13:51;;;;;;;4.13;3.27;;;;;;;;;;5100595;28;20211;-79
2023/11/15 02:16:18;;;;;;;4.23;3.80;;;;;;;;;;5108101;28;20703;-79
2023/11/15 02:18:45;;;;;;;7.17;4.27;;;;;;;;;;5101248;28;20199;-79
2023/11/15 02:21:15;;;;;;;4.30;3.40;;;;;;;;;;5097381;28;20282;-79
2023/11/15 02:23:44;;;;;;;43.17;21.37;;;;;;;;;;5099902;28;20232;-79
2023/11/15 02:26:11;;;;;;;148.27;62.23;;;;;;;;;;5104406;28;20199;-79
2023/11/15 02:28:37;;;;;;;30.20;15.93;;;;;;;;;;5102549;28;20210;-79
2023/11/15 02:31:05;;;;;;;10.63;6.37;;;;;;;;;;5092841;28;20200;-79
2023/11/15 02:33:32;;;;;;;10.07;5.93;;;;;;;;;;5102244;28;20211;-78
2023/11/15 02:35:59;;;;;;;5.37;4.60;;;;;;;;;;5110808;28;20288;-79
2023/11/15 02:38:25;;;;;;;5.67;3.70;;;;;;;;;;5099735;28;20196;-79
2023/11/15 02:40:54;;;;;;;4.93;3.20;;;;;;;;;;5104659;28;20250;-79
2023/11/15 02:43:21;;;;;;;5.27;3.10;;;;;;;;;;5102858;28;20604;-79
2023/11/15 02:45:48;;;;;;;4.03;3.63;;;;;;;;;;5105325;28;20200;-79
2023/11/15 02:48:15;;;;;;;5.30;3.03;;;;;;;;;;5090787;28;20201;-79
2023/11/15 02:50:41;;;;;;;3.00;2.70;;;;;;;;;;5103887;28;20211;-79
2023/11/15 02:53:11;;;;;;;3.00;2.80;;;;;;;;;;5090721;28;20196;-79
2023/11/15 02:55:38;;;;;;;3.63;3.30;;;;;;;;;;5110498;28;20230;-79
2023/11/15 02:58:06;;;;;;;3.33;3.03;;;;;;;;;;5097929;28;20251;-79
2023/11/15 03:00:33;;;;;;;4.50;2.87;;;;;;;;;;5090548;28;20197;-80
2023/11/15 03:03:00;;;;;;;3.57;3.27;;;;;;;;;;5090154;28;20227;-80
2023/11/15 03:05:26;;;;;;;5.50;2.97;;;;;;;;;;5090215;28;20200;-79
2023/11/15 03:07:53;;;;;;;7.73;3.33;;;;;;;;;;5091955;28;20208;-79
2023/11/15 03:10:20;;;;;;;3.17;2.87;;;;;;;;;;5110684;28;20677;-79
2023/11/15 03:12:48;;;;;;;3.80;3.50;;;;;;;;;;5095758;28;20204;-79
2023/11/15 03:15:16;;;;;;;4.77;3.37;;;;;;;;;;5090276;28;20230;-79
2023/11/15 03:17:43;;;;;;;3.77;3.37;;;;;;;;;;5104233;28;20200;-79
2023/11/15 03:20:11;;;;;;;4.03;3.47;;;;;;;;;;5102365;28;20200;-79
2023/11/15 03:22:38;;;;;;;3.60;3.30;;;;;;;;;;5098163;28;20204;-79
2023/11/15 03:25:05;;;;;;;4.23;3.70;;;;;;;;;;5094373;28;20217;-80
2023/11/15 03:27:32;;;;;;;4.27;3.33;;;;;;;;;;5097538;28;20196;-80
2023/11/15 03:29:59;;;;;;;28.33;13.70;;;;;;;;;;5114003;28;20230;-80
2023/11/15 03:32:28;;;;;;;8.13;5.93;;;;;;;;;;5109055;28;20211;-80
2023/11/15 03:34:55;;;;;;;5.30;4.30;;;;;;;;;;5094176;28;20201;-80
2023/11/15 03:37:23;;;;;;;4.57;3.60;;;;;;;;;;5100293;28;20605;-80
2023/11/15 03:39:49;;;;;;;4.67;3.07;;;;;;;;;;5101227;28;20231;-80
2023/11/15 03:42:16;;;;;;;4.67;3.63;;;;;;;;;;5113903;28;20231;-80
2023/11/15 03:44:43;;;;;;;3.63;2.73;;;;;;;;;;5114147;28;20255;-80
2023/11/15 03:47:11;;;;;;;3.43;3.13;;;;;;;;;;5114465;28;20199;-80
2023/11/15 03:49:39;;;;;;;4.13;2.90;;;;;;;;;;5099982;28;20211;-80
2023/11/15 03:52:07;;;;;;;5.23;3.57;;;;;;;;;;5094161;28;20208;-80
2023/11/15 03:54:34;;;;;;;4.17;3.43;;;;;;;;;;5107177;28;20268;-80
2023/11/15 03:57:02;;;;;;;3.60;3.07;;;;;;;;;;5093958;28;20200;-80
2023/11/15 03:59:29;;;;;;;5.67;2.67;;;;;;;;;;5097192;28;20676;-80
2023/11/15 04:01:56;;;;;;;4.13;2.60;;;;;;;;;;5093491;28;20196;-82
2023/11/15 04:04:23;;;;;;;4.20;3.30;;;;;;;;;;5105735;28;20633;-80
2023/11/15 04:06:51;;;;;;;2.77;2.57;;;;;;;;;;5094904;28;20211;-80
2023/11/15 04:09:18;;;;;;;5.37;3.07;;;;;;;;;;5092908;28;20682;-80
2023/11/15 04:11:44;;;;;;;10.30;6.60;;;;;;;;;;5099612;28;20219;-80
2023/11/15 04:14:11;;;;;;;74.60;30.83;;;;;;;;;;5113183;28;20317;-80
2023/11/15 04:16:38;;;;;;;24.70;12.13;;;;;;;;;;5110940;28;20701;-79
2023/11/15 04:19:05;;;;;;;6.60;4.37;;;;;;;;;;5111438;28;20204;-80
2023/11/15 04:21:32;;;;;;;4.33;3.43;;;;;;;;;;5111764;28;20207;-80
2023/11/15 04:24:00;;;;;;;4.77;3.80;;;;;;;;;;5111630;28;20231;-80
2023/11/15 04:26:27;;;;;;;18.70;8.83;;;;;;;;;;5093061;28;20585;-81
2023/11/15 04:28:53;;;;;;;11.47;6.63;;;;;;;;;;5093221;28;20589;-80
2023/11/15 04:31:22;;;;;;;15.50;8.40;;;;;;;;;;5112663;28;20675;-80
2023/11/15 04:33:49;;;;;;;11.97;6.67;;;;;;;;;;5099803;28;20228;-80
2023/11/15 04:36:19;;;;;;;10.13;5.87;;;;;;;;;;5112790;28;20681;-80
2023/11/15 04:38:46;;;;;;;4.20;3.77;;;;;;;;;;5112948;28;20203;-80
2023/11/15 04:41:15;;;;;;;7.37;3.57;;;;;;;;;;5100153;28;20203;-80
2023/11/15 04:43:41;;;;;;;6.30;3.73;;;;;;;;;;5098375;28;20228;-80
2023/11/15 04:46:10;;;;;;;3.50;3.20;;;;;;;;;;5092686;28;20214;-78
2023/11/15 04:48:38;;;;;;;3.90;2.80;;;;;;;;;;5105647;28;20200;-79
2023/11/15 04:51:06;;;;;;;3.17;2.90;;;;;;;;;;5093020;28;20200;-78
2023/11/15 04:53:33;;;;;;;5.83;4.87;;;;;;;;;;5106077;28;20208;-79
2023/11/15 04:56:00;;;;;;;6.07;4.80;;;;;;;;;;5100297;28;20203;-79
2023/11/15 04:58:28;;;;;;;6.53;4.43;;;;;;;;;;5109817;28;20200;-79
2023/11/15 05:00:55;;;;;;;6.80;5.50;;;;;;;;;;5092204;28;20204;-79
2023/11/15 05:03:22;;;;;;;6.70;6.10;;;;;;;;;;5109691;28;20203;-78
2023/11/15 05:05:49;;;;;;;6.70;4.17;;;;;;;;;;5112287;28;20632;-79
2023/11/15 05:08:15;;;;;;;5.27;3.47;;;;;;;;;;5111935;28;20643;-79
2023/11/15 05:10:42;;;;;;;4.50;3.43;;;;;;;;;;5110174;28;20268;-79
2023/11/15 05:13:09;;;;;;;3.13;2.83;;;;;;;;;;5100647;28;20286;-79
2023/11/15 05:15:37;;;;;;;6.17;3.50;;;;;;;;;;5112130;28;20203;-79
2023/11/15 05:18:04;;;;;;;3.37;3.07;;;;;;;;;;5110145;28;20203;-82
2023/11/15 05:20:31;;;;;;;8.30;3.40;;;;;;;;;;5112703;28;20204;-86
2023/11/15 05:22:58;;;;;;;3.93;2.93;;;;;;;;;;5112812;28;20588;-84
2023/11/15 05:25:25;;;;;;;6.63;5.33;;;;;;;;;;5112410;28;20234;-84
2023/11/15 05:27:52;;;;;;;7.27;6.57;;;;;;;;;;5113101;28;20301;-86
2023/11/15 05:30:19;;;;;;;8.40;3.93;;;;;;;;;;5112773;28;20199;-85
2023/11/15 05:32:47;;;;;;;9.97;6.60;;;;;;;;;;5092815;28;20675;-85
2023/11/15 05:35:15;;;;;;;7.37;5.73;;;;;;;;;;5105713;28;20199;-86
2023/11/15 05:37:41;;;;;;;9.97;6.77;;;;;;;;;;5112415;28;20738;-86
2023/11/15 05:40:12;;;;;;;8.07;6.70;;;;;;;;;;5113382;28;20211;-86
2023/11/15 05:42:39;;;;;;;6.33;5.73;;;;;;;;;;5104041;28;20230;-88
2023/11/15 05:45:07;;;;;;;6.33;5.37;;;;;;;;;;5105777;28;20237;-87
2023/11/15 05:47:34;;;;;;;6.43;5.20;;;;;;;;;;5092708;28;20558;-87
2023/11/15 05:50:03;;;;;;;5.27;4.73;;;;;;;;;;5092835;28;20611;-87
2023/11/15 05:52:30;;;;;;;5.07;4.47;;;;;;;;;;5101985;28;20204;-87
2023/11/15 05:54:57;;;;;;;6.07;4.70;;;;;;;;;;5110306;28;20230;-87
2023/11/15 05:57:23;;;;;;;7.27;5.37;;;;;;;;;;5102028;28;20613;-87
2023/11/15 05:59:50;;;;;;;4.70;4.10;;;;;;;;;;5101675;28;20212;-86
2023/11/15 06:02:17;;;;;;;5.77;3.80;;;;;;;;;;5110484;28;20204;-87
2023/11/15 06:04:44;;;;;;;4.57;3.93;;;;;;;;;;5112652;28;20223;-87
2023/11/15 06:07:12;;;;;;;4.00;3.57;;;;;;;;;;5112191;28;20211;-84
2023/11/15 06:09:39;;;;;;;4.87;3.17;;;;;;;;;;5099860;28;20205;-85
2023/11/15 06:12:06;;;;;;;4.97;3.20;;;;;;;;;;5110730;28;20212;-86
2023/11/15 06:14:33;;;;;;;3.77;3.13;;;;;;;;;;5102187;28;20740;-87
2023/11/15 06:17:00;;;;;;;4.33;3.07;;;;;;;;;;5103072;28;20204;-86
2023/11/15 06:19:27;;;;;;;5.77;2.70;;;;;;;;;;5105141;28;20630;-86
2023/11/15 06:21:53;;;;;;;3.73;3.43;;;;;;;;;;5101279;28;20218;-86
2023/11/15 06:24:22;;;;;;;2.67;2.47;;;;;;;;;;5111921;28;20234;-86
2023/11/15 06:26:51;;;;;;;5.73;4.37;;;;;;;;;;5111573;28;20207;-86
2023/11/15 06:29:18;;;;;;;15.47;10.07;;;;;;;;;;5111625;28;20420;-87
2023/11/15 06:31:45;;;;;;;7.33;6.50;;;;;;;;;;5111932;28;20203;-86
2023/11/15 06:34:12;;;;;;;9.80;6.07;;;;;;;;;;5111594;28;20677;-85
2023/11/15 06:36:39;;;;;;;10.37;9.27;;;;;;;;;;5100926;28;20219;-86
2023/11/15 06:39:08;;;;;;;13.77;7.30;;;;;;;;;;5109090;28;20219;-86
2023/11/15 06:41:39;;;;;;;9.17;4.63;;;;;;;;;;5111753;28;20318;-86
2023/11/15 06:44:07;;;;;;;10.27;5.67;;;;;;;;;;5111677;28;20300;-86
2023/11/15 06:46:34;;;;;;;10.70;8.47;;;;;;;;;;5111456;28;20199;-86
2023/11/15 06:49:01;;;;;;;8.93;8.03;;;;;;;;;;5097926;28;20207;-85
2023/11/15 06:51:28;;;;;;;6.80;5.97;;;;;;;;;;5111899;28;20207;-85
2023/11/15 06:53:54;;;;;;;8.70;5.67;;;;;;;;;;5098161;28;20203;-84
2023/11/15 06:56:21;;;;;;;10.27;6.47;;;;;;;;;;5116115;28;20222;-85
2023/11/15 06:58:50;;;;;;;10.00;6.17;;;;;;;;;;5115625;28;20199;-85
2023/11/15 07:01:16;;;;;;;5.03;4.27;;;;;;;;;;5115512;28;20268;-85
2023/11/15 07:03:44;;;;;;;8.93;4.77;;;;;;;;;;5108714;28;20196;-85
2023/11/15 07:06:13;;;;;;;9.03;6.03;;;;;;;;;;5095443;28;20223;-85
2023/11/15 07:08:40;;;;;;;11.50;6.03;;;;;;;;;;5115533;28;20299;-84
2023/11/15 07:11:08;;;;;;;7.50;4.67;;;;;;;;;;5115292;28;20207;-85
2023/11/15 07:13:35;;;;;;;8.80;3.90;;;;;;;;;;5115405;28;20286;-85
2023/11/15 07:16:07;;;;;;;4.63;4.23;;;;;;;;;;5115333;28;20199;-85
2023/11/15 07:18:34;;;;;;;4.63;4.10;;;;;;;;;;5115295;28;20196;-84
2023/11/15 07:21:01;;;;;;;4.50;4.10;;;;;;;;;;5113028;28;20659;-85
2023/11/15 07:23:27;;;;;;;8.10;4.37;;;;;;;;;;5103414;28;20686;-85
2023/11/15 07:25:55;;;;;;;7.60;4.77;;;;;;;;;;5112101;28;20233;-84
2023/11/15 07:28:22;;;;;;;5.10;3.63;;;;;;;;;;5094907;28;20239;-85
2023/11/15 07:30:50;;;;;;;9.10;5.17;;;;;;;;;;5108251;28;20193;-85
2023/11/15 07:33:19;;;;;;;4.63;4.00;;;;;;;;;;5094551;28;20204;-85
2023/11/15 07:35:46;;;;;;;4.37;3.33;;;;;;;;;;5111779;28;20290;-84
2023/11/15 07:38:13;;;;;;;7.77;4.10;;;;;;;;;;5114971;28;20208;-85
2023/11/15 07:40:41;;;;;;;9.17;6.30;;;;;;;;;;5096616;28;20209;-85
2023/11/15 07:43:10;;;;;;;8.37;6.77;;;;;;;;;;5105860;28;20225;-84
2023/11/15 07:45:38;;;;;;;8.57;7.70;;;;;;;;;;5114676;28;20315;-85
2023/11/15 07:48:10;;;;;;;9.70;8.73;;;;;;;;;;5114119;28;20282;-85
2023/11/15 07:50:38;;;;;;;13.20;11.87;;;;;;;;;;5113797;28;20194;-84
2023/11/15 07:53:05;;;;;;;25.93;19.57;;;;;;;;;;5101203;28;20294;-84
2023/11/15 07:55:35;;;;;;;12.97;9.50;;;;;;;;;;5094047;28;20281;-83
2023/11/15 07:58:02;;;;;;;8.90;8.00;;;;;;;;;;5094500;28;20292;-83
2023/11/15 08:00:30;;;;;;;9.10;8.30;;;;;;;;;;5100115;28;20272;-84
2023/11/15 08:02:58;;;;;;;12.63;11.43;;;;;;;;;;5113799;28;20565;-84
2023/11/15 08:05:26;;;;;;;13.27;11.77;;;;;;;;;;5100054;28;20227;-84
2023/11/15 08:07:56;;;;;;;11.53;10.53;;;;;;;;;;5113001;28;20199;-83
2023/11/15 08:10:23;;;;;;;15.53;13.93;;;;;;;;;;5101683;28;20312;-84
2023/11/15 08:12:50;;;;;;;28.00;22.47;;;;;;;;;;5114118;28;20231;-85
2023/11/15 08:15:17;;;;;;;16.33;11.90;;;;;;;;;;5113789;28;20260;-84
2023/11/15 08:17:46;;;;;;;11.23;10.13;;;;;;;;;;5113695;28;20206;-84
2023/11/15 08:20:14;;;;;;;7.50;6.67;;;;;;;;;;5104802;28;20203;-84
2023/11/15 08:22:41;;;;;;;8.50;7.60;;;;;;;;;;5106956;28;20585;-84
2023/11/15 08:25:10;;;;;;;7.33;6.40;;;;;;;;;;5093137;28;20227;-84
2023/11/15 08:27:38;;;;;;;7.57;6.37;;;;;;;;;;5106959;28;20289;-84
2023/11/15 08:30:10;;;;;;;6.67;6.03;;;;;;;;;;5093031;28;20200;-83
2023/11/15 08:32:37;;;;;;;9.20;5.97;;;;;;;;;;5093126;28;20197;-86
2023/11/15 08:35:05;;;;;;;6.43;5.73;;;;;;;;;;5104855;28;20588;-84
2023/11/15 08:37:32;;;;;;;6.00;5.17;;;;;;;;;;5108342;28;20197;-84
2023/11/15 08:40:00;;;;;;;7.17;6.43;;;;;;;;;;5104645;28;20565;-84
2023/11/15 08:42:28;;;;;;;5.27;4.70;;;;;;;;;;5099925;28;20223;-83
2023/11/15 08:44:55;;;;;;;6.13;5.63;;;;;;;;;;5113183;28;20224;-83
2023/11/15 08:47:24;;;;;;;8.53;6.40;;;;;;;;;;5113049;28;20214;-84
2023/11/15 08:49:53;;;;;;;10.20;6.43;;;;;;;;;;5113034;28;20578;-84
2023/11/15 08:52:20;;;;;;;5.10;4.60;;;;;;;;;;5113206;28;20294;-83
2023/11/15 08:54:47;;;;;;;5.03;4.60;;;;;;;;;;5099137;28;20208;-84
2023/11/15 08:57:15;;;;;;;7.00;4.87;;;;;;;;;;5105886;28;20242;-84
2023/11/15 08:59:45;;;;;;;6.93;5.33;;;;;;;;;;5092550;28;20201;-85
2023/11/15 09:02:12;;;;;;;7.37;5.33;;;;;;;;;;5113137;28;20204;-84
2023/11/15 09:04:38;;;;;;;6.37;4.97;;;;;;;;;;5099044;28;20219;-85
2023/11/15 09:07:05;;;;;;;6.80;5.20;;;;;;;;;;5112987;28;20273;-84
2023/11/15 09:09:39;;;;;;;9.10;8.23;;;;;;;;;;5098336;28;20208;-84
2023/11/15 09:12:07;;;;;;;9.50;6.70;;;;;;;;;;5113120;28;20207;-83
2023/11/15 09:14:34;;;;;;;8.63;7.73;;;;;;;;;;5111804;28;20697;-84
2023/11/15 09:17:05;;;;;;;8.20;6.63;;;;;;;;;;5103428;28;20261;-83
2023/11/15 09:19:32;;;;;;;7.13;6.30;;;;;;;;;;5108084;28;20200;-83
2023/11/15 09:22:01;;;;;;;7.20;6.47;;;;;;;;;;5112969;28;20203;-83
2023/11/15 09:24:29;;;;;;;26.73;20.07;;;;;;;;;;5094769;28;20200;-83
2023/11/15 09:26:59;;;;;;;27.57;14.10;;;;;;;;;;5102762;28;20203;-83
2023/11/15 09:29:28;;;;;;;21.23;18.27;;;;;;;;;;5093915;28;20233;-83
2023/11/15 09:31:55;;;;;;;8.97;7.50;;;;;;;;;;5092402;28;20286;-83
2023/11/15 09:34:26;;;;;;;14.03;9.67;;;;;;;;;;5091670;28;20275;-84
2023/11/15 09:36:52;;;;;;;14.80;13.17;;;;;;;;;;5091868;28;20201;-82
2023/11/15 09:39:20;;;;;;;6.97;5.80;;;;;;;;;;5091490;28;20197;-84
2023/11/15 09:41:51;;;;;;;5.97;5.20;;;;;;;;;;5091786;28;20660;-83
2023/11/15 09:44:19;;;;;;;6.13;5.53;;;;;;;;;;5104811;28;20211;-83
2023/11/15 09:46:46;;;;;;;12.53;8.70;;;;;;;;;;5105788;28;20223;-83
2023/11/15 09:49:15;;;;;;;7.70;5.27;;;;;;;;;;5111837;28;20207;-83
2023/11/15 09:51:44;;;;;;;9.80;7.00;;;;;;;;;;5098282;28;20239;-83
2023/11/15 09:54:12;;;;;;;6.30;5.67;;;;;;;;;;5103801;28;20200;-83
2023/11/15 09:56:40;;;;;;;5.70;5.03;;;;;;;;;;5105054;28;20211;-83
2023/11/15 09:59:08;;;;;;;6.10;4.43;;;;;;;;;;5091368;28;20204;-82
2023/11/15 10:01:35;;;;;;;10.33;5.40;;;;;;;;;;5094010;28;20200;-82
2023/11/15 10:04:04;;;;;;;7.70;4.40;;;;;;;;;;5102253;28;20703;-83
2023/11/15 10:06:40;;;;;;;5.10;4.43;;;;;;;;;;5104574;28;20307;-83
2023/11/15 10:09:12;;;;;;;9.77;7.53;;;;;;;;;;5091700;28;20203;-83
2023/11/15 10:11:40;;;;;;;12.63;7.67;;;;;;;;;;5104673;28;20197;-83
2023/11/15 10:14:15;;;;;;;8.23;5.77;;;;;;;;;;5103764;28;20203;-83
2023/11/15 10:16:48;;;;;;;26.47;19.47;;;;;;;;;;5105113;28;20230;-83
2023/11/15 10:19:27;;;;;;;8.03;5.77;;;;;;;;;;5104463;28;20203;-83
2023/11/15 10:21:58;;;;;;;4.33;3.93;;;;;;;;;;5100659;28;20199;-83
2023/11/15 10:24:28;;;;;;;5.27;4.63;;;;;;;;;;5110465;28;20738;-82
2023/11/15 10:26:56;;;;;;;8.10;5.00;;;;;;;;;;5111172;28;20215;-83
2023/11/15 10:29:26;;;;;;;8.30;6.07;;;;;;;;;;5093261;28;20201;-83
2023/11/15 10:31:56;;;;;;;8.53;5.83;;;;;;;;;;5101894;28;20203;-82
2023/11/15 10:34:29;;;;;;;5.00;4.33;;;;;;;;;;5097475;28;20200;-83
2023/11/15 10:37:04;;;;;;;4.43;3.70;;;;;;;;;;5098794;28;20671;-82
2023/11/15 10:39:38;;;;;;;6.07;3.70;;;;;;;;;;5098541;28;20671;-81
2023/11/15 10:42:06;;;;;;;6.47;3.03;;;;;;;;;;5095628;28;20626;-83
2023/11/15 10:44:36;;;;;;;3.87;3.57;;;;;;;;;;5099761;28;20261;-83
2023/11/15 10:47:06;;;;;;;6.87;5.13;;;;;;;;;;5095061;28;20630;-82
2023/11/15 10:49:39;;;;;;;3.43;2.93;;;;;;;;;;5100921;28;20645;-82
2023/11/15 10:52:07;;;;;;;4.87;4.37;;;;;;;;;;5097585;28;20797;-82
2023/11/15 10:54:35;;;;;;;9.73;4.13;;;;;;;;;;5099419;28;20204;-82
2023/11/15 10:57:05;;;;;;;20.03;10.70;;;;;;;;;;5104007;28;20219;-82
2023/11/15 10:59:36;;;;;;;10.00;5.77;;;;;;;;;;5090939;28;20196;-82
2023/11/15 11:02:05;;;;;;;11.63;4.43;;;;;;;;;;5096948;28;20608;-82
2023/11/15 11:04:34;;;;;;;8.97;4.30;;;;;;;;;;5097251;28;20287;-82
2023/11/15 11:07:07;;;;;;;4.40;3.63;;;;;;;;;;5090536;28;20227;-82
2023/11/15 11:09:42;;;;;;;4.13;3.10;;;;;;;;;;5091783;28;20196;-81
2023/11/15 11:12:11;;;;;;;4.90;3.37;;;;;;;;;;5101670;28;20629;-82
2023/11/15 11:14:38;;;;;;;4.63;4.23;;;;;;;;;;5093398;28;20223;-82
2023/11/15 11:17:33;;;;;;;3.87;3.00;;;;;;;;;;5100594;28;20207;-82
2023/11/15 11:20:01;;;;;;;3.73;2.87;;;;;;;;;;5098191;28;20246;-82
2023/11/15 11:22:27;;;;;;;2.90;2.40;;;;;;;;;;5110715;28;20206;-82
2023/11/15 11:25:29;;;;;;;2.97;2.77;;;;;;;;;;5110962;28;20244;-82
2023/11/15 11:28:01;;;;;;;2.40;2.17;;;;;;;;;;5088480;28;20216;-82
2023/11/15 11:30:28;;;;;;;2.97;2.40;;;;;;;;;;5109440;28;20221;-82
2023/11/15 11:33:15;;;;;;;3.80;3.00;;;;;;;;;;5090649;28;20202;-82
2023/11/15 11:35:42;;;;;;;4.90;3.50;;;;;;;;;;5107457;28;20205;-83
2023/11/15 11:38:14;;;;;;;6.97;2.63;;;;;;;;;;5100081;28;20193;-82
2023/11/15 11:40:42;;;;;;;2.43;2.27;;;;;;;;;;5110673;28;20597;-82
2023/11/15 11:43:15;;;;;;;4.53;2.70;;;;;;;;;;5102935;28;20315;-79
2023/11/15 11:45:44;;;;;;;3.43;2.87;;;;;;;;;;5093787;28;20270;-80
2023/11/15 11:48:19;;;;;;;4.23;3.13;;;;;;;;;;5094583;28;20240;-80
2023/11/15 11:50:59;;;;;;;4.20;2.77;;;;;;;;;;5093712;28;20193;-80
2023/11/15 11:53:26;;;;;;;3.77;3.37;;;;;;;;;;5109810;28;20199;-80
2023/11/15 11:55:54;;;;;;;7.23;4.73;;;;;;;;;;5114258;28;20210;-79
2023/11/15 11:58:24;;;;;;;5.90;3.73;;;;;;;;;;5111103;28;20199;-80
2023/11/15 12:00:51;;;;;;;4.20;3.53;;;;;;;;;;5103707;28;20199;-80
2023/11/15 12:03:18;;;;;;;3.43;3.13;;;;;;;;;;5097193;28;20705;-80
2023/11/15 12:05:45;;;;;;;3.30;3.00;;;;;;;;;;5093431;28;20613;-79
2023/11/15 12:08:14;;;;;;;3.93;3.10;;;;;;;;;;5110637;28;20200;-79
2023/11/15 12:10:44;;;;;;;5.37;2.47;;;;;;;;;;5114185;28;20203;-79
2023/11/15 12:13:11;;;;;;;4.90;2.37;;;;;;;;;;5100228;28;20239;-80
2023/11/15 12:15:39;;;;;;;3.87;2.67;;;;;;;;;;5113637;28;20204;-80
2023/11/15 12:18:07;;;;;;;3.03;2.50;;;;;;;;;;5113870;28;20208;-80
2023/11/15 12:20:36;;;;;;;3.10;2.80;;;;;;;;;;5101108;28;20261;-80
2023/11/15 12:23:08;;;;;;;6.43;5.23;;;;;;;;;;5093204;28;20245;-80
2023/11/15 12:25:43;;;;;;;3.47;3.13;;;;;;;;;;5106706;28;20210;-80
2023/11/15 12:28:14;;;;;;;6.10;3.10;;;;;;;;;;5105669;28;20206;-80
2023/11/15 12:30:43;;;;;;;3.73;2.67;;;;;;;;;;5093252;28;20204;-80
2023/11/15 12:33:11;;;;;;;4.17;3.40;;;;;;;;;;5102504;28;20278;-80
2023/11/15 12:35:41;;;;;;;3.47;3.17;;;;;;;;;;5110026;28;20748;-80
2023/11/15 12:38:11;;;;;;;4.30;3.03;;;;;;;;;;5093061;28;20430;-80
2023/11/15 12:40:38;;;;;;;3.53;3.17;;;;;;;;;;5110726;28;20279;-80
2023/11/15 12:43:17;;;;;;;5.03;4.53;;;;;;;;;;5112934;28;20223;-80
2023/11/15 12:45:46;;;;;;;4.47;3.87;;;;;;;;;;5098946;28;20281;-80
2023/11/15 12:48:13;;;;;;;4.37;3.43;;;;;;;;;;5099998;28;20194;-80
2023/11/15 12:50:41;;;;;;;3.23;2.43;;;;;;;;;;5092913;28;20200;-80
2023/11/15 12:53:13;;;;;;;2.50;2.30;;;;;;;;;;5105711;28;20200;-82
2023/11/15 12:55:49;;;;;;;2.20;1.87;;;;;;;;;;5100459;28;20196;-80
2023/11/15 12:58:17;;;;;;;5.73;1.70;;;;;;;;;;5110531;28;20286;-82
2023/11/15 13:00:59;;;;;;;5.37;1.67;;;;;;;;;;5101210;28;20199;-81
2023/11/15 13:03:27;;;;;;;2.37;1.70;;;;;;;;;;5095121;28;20204;-81
2023/11/15 13:05:59;;;;;;;2.33;2.03;;;;;;;;;;5103103;28;20681;-81
2023/11/15 13:08:25;;;;;;;3.00;2.70;;;;;;;;;;5099438;28;20199;-81
2023/11/15 13:10:55;;;;;;;2.40;2.10;;;;;;;;;;5112785;28;20203;-80
2023/11/15 13:13:23;;;;;;;2.83;2.27;;;;;;;;;;5112030;28;20191;-79
2023/11/15 13:15:50;;;;;;;3.33;1.40;;;;;;;;;;5112587;28;20264;-80
2023/11/15 13:18:19;;;;;;;2.10;1.70;;;;;;;;;;5106400;28;20199;-81
2023/11/15 13:20:46;;;;;;;1.40;1.30;;;;;;;;;;5092095;28;20227;-82
2023/11/15 13:23:14;;;;;;;3.47;1.57;;;;;;;;;;5099104;28;20286;-81
2023/11/15 13:25:41;;;;;;;1.43;1.30;;;;;;;;;;5111619;28;20206;-80
2023/11/15 13:28:09;;;;;;;2.37;1.00;;;;;;;;;;5092110;28;20258;-80
2023/11/15 13:30:38;;;;;;;0.80;0.80;;;;;;;;;;5105616;28;20202;-80
2023/11/15 13:33:05;;;;;;;1.23;1.13;;;;;;;;;;5100169;28;20753;-80
2023/11/15 13:35:33;;;;;;;1.03;1.03;;;;;;;;;;5096551;28;20303;-80
2023/11/15 13:38:00;;;;;;;1.67;1.57;;;;;;;;;;5092275;28;20207;-80
2023/11/15 13:40:26;;;;;;;2.20;2.00;;;;;;;;;;5093891;28;20285;-81
2023/11/15 13:42:53;;;;;;;3.70;1.40;;;;;;;;;;5103274;28;20576;-80
2023/11/15 13:45:22;;;;;;;1.50;1.40;;;;;;;;;;5104980;28;20590;-80
2023/11/15 13:47:50;;;;;;;3.07;2.77;;;;;;;;;;5101682;28;20219;-81
2023/11/15 13:50:18;;;;;;;2.53;1.93;;;;;;;;;;5094322;28;20629;-80
2023/11/15 13:52:46;;;;;;;6.57;2.83;;;;;;;;;;5092033;28;20200;-80
2023/11/15 13:55:13;;;;;;;1.60;1.50;;;;;;;;;;5095535;28;20195;-80
2023/11/15 13:57:40;;;;;;;1.27;1.17;;;;;;;;;;5100903;28;20679;-80
2023/11/15 14:00:13;;;;;;;1.17;1.00;;;;;;;;;;5094683;28;20578;-80
2023/11/15 14:02:40;;;;;;;2.30;2.10;;;;;;;;;;5110966;28;20208;-80
2023/11/15 14:05:14;;;;;;;1.90;1.70;;;;;;;;;;5106772;28;20239;-81
2023/11/15 14:07:42;;;;;;;2.50;2.03;;;;;;;;;;5103953;28;20226;-80
2023/11/15 14:10:14;;;;;;;4.73;2.87;;;;;;;;;;5110943;28;20206;-81
2023/11/15 14:12:41;;;;;;;16.57;3.60;;;;;;;;;;5098439;28;20773;-80
2023/11/15 14:15:12;;;;;;;5.87;3.07;;;;;;;;;;5110989;28;20207;-81
2023/11/15 14:17:39;;;;;;;5.67;3.43;;;;;;;;;;5097685;28;20216;-80
2023/11/15 14:20:10;;;;;;;2.60;1.73;;;;;;;;;;5098397;28;20617;-80
2023/11/15 14:22:40;;;;;;;3.03;2.00;;;;;;;;;;5096775;28;20261;-80
2023/11/15 14:25:19;;;;;;;2.33;1.97;;;;;;;;;;5099357;28;20203;-80
2023/11/15 14:27:49;;;;;;;1.20;0.80;;;;;;;;;;5111039;28;20223;-80
2023/11/15 14:30:17;;;;;;;5.10;3.17;;;;;;;;;;5099964;28;20200;-81
2023/11/15 14:32:44;;;;;;;3.20;2.47;;;;;;;;;;5109860;28;20282;-80
2023/11/15 14:35:11;;;;;;;2.23;1.90;;;;;;;;;;5110978;28;20252;-81
2023/11/15 14:37:38;;;;;;;7.53;4.67;;;;;;;;;;5092146;28;20207;-80
2023/11/15 14:40:06;;;;;;;2.83;1.73;;;;;;;;;;5091134;28;20207;-80
2023/11/15 14:42:33;;;;;;;5.87;3.90;;;;;;;;;;5110018;28;20227;-80
2023/11/15 14:45:01;;;;;;;4.83;2.03;;;;;;;;;;5098635;28;20280;-80
2023/11/15 14:47:29;;;;;;;0.90;0.90;;;;;;;;;;5097070;28;20219;-81